Tiempo atmosférico en la estación meteorológica de Medina Sidonia, Cádiz (90 m.)



Fecha
DESCASC
Temp. máxima en grados centígrados (hora)
DESCASC
Temp. mínima en grados centígrados (hora)
DESCASC
Temp. media en grados centígrados
DESCASC
Racha de viento máxima en m/sg (hora)
DESCASC
Velocidad máxima media en intervalos de 10 minutos(hora)
DESCASC
Precipitaciones diarias en mm
DESCASC
Precipitaciones de 00:00 a 06:00 en mm
DESCASC
Precipitaciones de 06:00 a 12:00 en mm
DESCASC
Precipitaciones de 12:00 a 18:00 en mm
DESCASC
Precipitaciones de 18:00 a 24:00 en mm
DESCASC
16-06-2019 28.8 (15:40) 11.6 (05:10) 20.2 9.17 (16:50) 6.39 (17:20) 0 0 0 0 0
15-06-2019 28.1 (15:30) 11.3 (04:50) 19.7 13.33 (20:20) 9.44 (20:20) 0 0 0 0 0
14-06-2019 21.6 (16:10) 15.7 (07:50) 18.7 13.61 (14:30) 7.5 (14:30) 0 0 0 0 0
13-06-2019 27.3 (16:20) 16.6 (00:00) 21.9 13.61 (11:50) 9.17 (11:40) 0 0 0 0 0
12-06-2019 25.9 (15:50) 14.5 (00:00) 20.2 17.5 (11:30) 12.78 (12:10) 0 0 0 0 0
11-06-2019 23.6 (16:40) 11.4 (00:00) 17.5 11.67 (14:40) 8.61 (15:00) 0 0 0 0 0
10-06-2019 24.5 (15:00) 13 (00:00) 18.8 12.78 (13:50) 8.89 (17:10) 0 0 0 0 0
09-06-2019 25.5 (16:40) 15 (00:00) 20.3 11.39 (15:50) 7.5 (17:20) 0 0 0 0 0
08-06-2019 29.4 (16:10) 10.1 (00:00) 19.8 12.5 (15:50) 8.89 (15:50) 0 0 0 0 0
07-06-2019 27.5 (17:50) 14.4 (00:00) 20.9 11.11 (19:20) 8.33 (21:20) 0.4 0 0.4 0 0
06-06-2019 25.1 (13:50) 10.5 (00:00) 17.8 10.83 (16:50) 7.22 (17:50) 0 0 0 0 0
05-06-2019 23.2 (15:10) 14.6 (00:00) 18.9 11.67 (16:00) 8.06 (20:10) 0 0 0 0 0
04-06-2019 26.7 (15:00) 11.5 (00:00) 19.1 12.22 (19:30) 9.17 (19:30) 0 0 0 0 0
03-06-2019 32.1 (16:50) 17 (00:00) 24.5 12.22 (12:20) 8.33 (12:40) 0 0 0 0 0
02-06-2019 28.9 (15:40) 19.5 (00:00) 24.2 17.5 (18:40) 12.78 (20:00) 0 0 0 0 0
01-06-2019 27 (16:10) 18.5 (00:00) 22.8 21.39 (00:40) 15 (13:00) 0 0 0 0 0
31-05-2019 26.1 (15:20) 18 (00:00) 22.1 25.28 (11:40) 16.94 (15:10) 0 0 0 0 0
30-05-2019 25.1 (14:20) 18.6 (00:00) 21.9 21.94 (11:50) 16.39 (15:10) 0 0 0 0 0
29-05-2019 26.6 (14:20) 14.6 (00:00) 20.6 21.67 (11:00) 14.72 (12:10) 0 0 0 0 0
28-05-2019 30.3 (16:40) 14.6 (00:00) 22.4 8.61 (15:10) 6.11 (15:10) 0 0 0 0 0
27-05-2019 33.4 (14:40) 13.7 (00:00) 23.6 10.28 (20:40) 8.33 (18:40) 0 0 0 0 0
26-05-2019 30 (18:40) 16.4 (00:00) 23.2 10.83 (13:30) 6.94 (10:40) 0 0 0 0 0
25-05-2019 28.4 (15:10) 15.8 (00:00) 22.1 11.67 (06:00) 6.67 (06:10) 0 0 0 0 0
24-05-2019 24.1 (17:20) 14.1 (00:00) 19.1 12.78 (16:30) 8.33 (18:10) 0 0 0 0 0
23-05-2019 32 (17:00) 13.1 (00:00) 22.6 8.61 (10:30) 6.39 (18:00) 0 0 0 0 0
22-05-2019 29 (16:10) 11.4 (00:00) 20.2 11.11 (09:20) 7.78 (09:50) 0 0 0 0 0
21-05-2019 25 (15:00) 10 (07:10) 17.5 11.39 (15:50) 7.78 (16:10) 0 0 0 0 0

Gráficas

Temp. máximas Temp. mínimas Temp. medias Precipitaciones Rachas de viento máximas Velocidades máximas media en intervalos de 10 minutos

Datos horarios

Fecha y hora oficial Temperatura (ºC) Velocidad del viento (km/h) Dirección del viento Racha (km/h) Dirección de racha Precipitación (mm) Presión (hPa) Tendencia (hPa) Humedad (%)
2019-06-19 23:00:00 19.2 4 Oeste 32 Oeste 0 -- -- 87
2019-06-19 22:00:00 19.7 25 Oeste 42 Oeste 0 -- -- 84
2019-06-19 21:00:00 21.1 32 Oeste 45 Noroeste 0 -- -- 75
2019-06-19 20:00:00 23.1 32 Oeste 44 Noroeste 0 -- -- 65
2019-06-19 19:00:00 24.2 28 Oeste 40 Oeste 0 -- -- 59
2019-06-19 18:00:00 25.2 27 Oeste 40 Oeste 0 -- -- 55
2019-06-19 17:00:00 26.2 23 Oeste 35 Noroeste 0 -- -- 53
2019-06-19 16:00:00 25.9 22 Oeste 39 Oeste 0 -- -- 55
2019-06-19 15:00:00 26.4 22 Noroeste 39 Noroeste 0 -- -- 55
2019-06-19 14:00:00 25.5 14 Noroeste 33 Noroeste 0 -- -- 55
2019-06-19 13:00:00 24.8 13 Noroeste 27 Oeste 0 -- -- 57
2019-06-19 12:00:00 23.4 13 Oeste 24 Noroeste 0 -- -- 61
2019-06-19 11:00:00 22.6 11 Noroeste 23 Oeste 0 -- -- 65
2019-06-19 10:00:00 20.8 13 Noroeste 27 Oeste 0 -- -- 76
2019-06-19 09:00:00 19 8 Noroeste 16 Noroeste 0 -- -- 90
2019-06-19 08:00:00 17.7 4 Noroeste 9 Oeste 0 -- -- 95
2019-06-19 07:00:00 17.6 6 Noroeste 19 Oeste 0 -- -- 96
2019-06-19 06:00:00 17.2 9 Noroeste 13 Noroeste 0 -- -- 95
2019-06-19 05:00:00 17.3 0 Calma 10 Oeste 0 -- -- 94
2019-06-19 04:00:00 17.8 10 Oeste 16 Oeste 0 -- -- 93
2019-06-19 03:00:00 18.9 10 Oeste 17 Oeste 0 -- -- 90
2019-06-19 02:00:00 18.3 4 Oeste 9 Noroeste 0 -- -- 92
2019-06-19 01:00:00 17.5 0 Calma 12 Oeste 0 -- -- 89
2019-06-19 00:00:00 18.5 8 Noroeste 20 Oeste 0 -- -- 87
2019-06-18 23:00:00 19.1 13 Oeste 26 Oeste 0 -- -- 84
2019-06-18 22:00:00 19.8 18 Oeste 27 Noroeste 0 -- -- 78
2019-06-18 21:00:00 21.7 18 Oeste 30 Oeste 0 -- -- 68
2019-06-18 20:00:00 23.1 17 Noroeste 34 Oeste 0 -- -- 63
2019-06-18 19:00:00 23.9 20 Oeste 32 Noroeste 0 -- -- 60
2019-06-18 18:00:00 24.4 18 Noroeste 33 Oeste 0 -- -- 57
2019-06-18 17:00:00 24.9 21 Oeste 35 Noroeste 0 -- -- 55
2019-06-18 16:00:00 25.1 17 Noroeste 31 Oeste 0 -- -- 51
2019-06-18 15:00:00 24.1 14 Sudoeste 31 Oeste 0 -- -- 52
2019-06-18 14:00:00 23.7 16 Oeste 33 Sudoeste 0 -- -- 53
2019-06-18 13:00:00 23 12 Oeste 26 Oeste 0 -- -- 54
2019-06-18 12:00:00 21.7 11 Oeste 24 Oeste 0 -- -- 57
2019-06-18 11:00:00 19.7 9 Oeste 22 Oeste 0 -- -- 66
2019-06-18 10:00:00 18.6 9 Sudoeste 17 Sudoeste 0 -- -- 73
2019-06-18 09:00:00 16.2 6 Este 9 Este 0 -- -- 86
2019-06-18 08:00:00 13.5 0 Calma 2 Oeste 0 -- -- 93
2019-06-18 07:00:00 12.8 2 Oeste 3 Oeste 0 -- -- 89
2019-06-18 06:00:00 13.1 3 Este 5 Este 0 -- -- 90
2019-06-18 05:00:00 13.8 0 Calma 4 Sudoeste 0 -- -- 92
2019-06-18 04:00:00 13.7 0 Calma 3 Este 0 -- -- 89
2019-06-18 03:00:00 14.3 4 Este 5 Oeste 0 -- -- 86
2019-06-18 02:00:00 16 2 Oeste 6 Oeste 0 -- -- 86
2019-06-18 01:00:00 16.5 5 Oeste 8 Oeste 0 -- -- 82
2019-06-18 00:00:00 17.5 6 Oeste 16 Oeste 0 -- -- 77
2019-06-17 23:00:00 18.1 11 Oeste 18 Oeste 0 -- -- 71
2019-06-17 22:00:00 19.5 8 Oeste 18 Oeste 0 -- -- 68
2019-06-17 21:00:00 22.2 13 Oeste 25 Oeste 0 -- -- 59
2019-06-17 20:00:00 24.4 17 Oeste 28 Oeste 0 -- -- 53
2019-06-17 19:00:00 25.3 22 Oeste 33 Oeste 0 -- -- 53
2019-06-17 18:00:00 26.4 22 Oeste 37 Oeste 0 -- -- 52
2019-06-17 17:00:00 27.1 21 Oeste 35 Oeste 0 -- -- 48
2019-06-17 16:00:00 28.2 12 Sudoeste 26 Sudoeste 0 -- -- 46
2019-06-17 15:00:00 27.4 19 Oeste 29 Oeste 0 -- -- 48
2019-06-17 14:00:00 28.6 9 Sur 22 Sudeste 0 -- -- 39
2019-06-17 13:00:00 26.9 9 Sur 21 Sudeste 0 -- -- 43
2019-06-17 12:00:00 25.1 9 Sudeste 19 Sudeste 0 -- -- 49
2019-06-17 11:00:00 22.8 8 Sur 15 Sudeste 0 -- -- 52
2019-06-17 10:00:00 20 4 Sudeste 9 Sudeste 0 -- -- 65
2019-06-17 09:00:00 16.1 5 Este 7 Nordeste 0 -- -- 79
2019-06-17 08:00:00 11.8 0 Calma 4 Noroeste 0 -- -- 92
2019-06-17 07:00:00 10.5 3 Noroeste 5 Noroeste 0 -- -- 92
2019-06-17 06:00:00 11.2 0 Calma 5 Noroeste 0 -- -- 90
2019-06-17 05:00:00 11.6 5 Oeste 5 Oeste 0 -- -- 90
2019-06-17 04:00:00 12.1 2 Oeste 4 Oeste 0 -- -- 88
2019-06-17 03:00:00 13.1 0 Calma 6 Noroeste 0 -- -- 87
2019-06-17 02:00:00 14 3 Oeste 8 Noroeste 0 -- -- 87
2019-06-17 01:00:00 15 2 Oeste 5 Sudoeste 0 -- -- 85
2019-06-17 00:00:00 16.5 2 Oeste 8 Oeste 0 -- -- 79
2019-06-16 23:00:00 18.7 6 Oeste 13 Oeste 0 -- -- 74
2019-06-16 22:00:00 20.1 4 Oeste 16 Oeste 0 -- -- 66
2019-06-16 21:00:00 22.5 14 Oeste 24 Oeste 0 -- -- 57
2019-06-16 20:00:00 24.2 18 Oeste 26 Oeste 0 -- -- 51
2019-06-16 19:00:00 25.6 17 Oeste 28 Sudoeste 0 -- -- 46
2019-06-16 18:00:00 25.8 19 Sudoeste 32 Sudoeste 0 -- -- 46
2019-06-16 17:00:00 26.6 17 Sudoeste 33 Sudoeste 0 -- -- 47
2019-06-16 16:00:00 27.1 19 Sudoeste 29 Sudoeste 0 -- -- 48
2019-06-16 15:00:00 28.4 8 Sur 31 Sudeste 0 -- -- 42
2019-06-16 14:00:00 27.2 14 Sudeste 24 Sudeste 0 -- -- 43
2019-06-16 13:00:00 26.1 17 Sudeste 27 Sudeste 0 -- -- 50
2019-06-16 12:00:00 22.3 13 Sudeste 21 Sudeste 0 -- -- 62
2019-06-16 11:00:00 21.1 13 Sudeste 19 Sudeste 0 -- -- 64
2019-06-16 10:00:00 19.5 12 Sudeste 19 Este 0 -- -- 74
2019-06-16 09:00:00 15.9 6 Este 10 Sudeste 0 -- -- 81
2019-06-16 08:00:00 12.2 0 Calma 7 Este 0 -- -- 87
2019-06-16 07:00:00 11.8 0 Calma 4 Este 0 -- -- 88
2019-06-16 06:00:00 11.8 2 Sudoeste 4 Sudoeste 0 -- -- 88
2019-06-16 05:00:00 11.7 0 Calma 4 Este 0 -- -- 86
2019-06-16 04:00:00 12.3 0 Calma 3 Este 0 -- -- 83
2019-06-16 03:00:00 13.3 3 Este 6 Noroeste 0 -- -- 81
2019-06-16 02:00:00 13.9 3 Noroeste 6 Noroeste 0 -- -- 79
2019-06-16 01:00:00 14.9 4 Noroeste 8 Oeste 0 -- -- 76
2019-06-16 00:00:00 16.2 3 Oeste 10 Noroeste 0 -- -- 71
2019-06-15 23:00:00 17.8 7 Noroeste 33 Noroeste 0 -- -- 70
2019-06-15 22:00:00 18.3 26 Noroeste 45 Oeste 0 -- -- 71
2019-06-15 21:00:00 20 29 Oeste 48 Oeste 0 -- -- 62
2019-06-15 20:00:00 22.8 30 Oeste 42 Oeste 0 -- -- 51
2019-06-15 19:00:00 25.2 27 Oeste 39 Oeste 0 -- -- 43
2019-06-15 18:00:00 25.8 28 Oeste 40 Oeste 0 -- -- 42
2019-06-15 17:00:00 26.2 30 Oeste 40 Noroeste 0 -- -- 39
2019-06-15 16:00:00 26.7 25 Oeste 37 Oeste 0 -- -- 39
2019-06-15 15:00:00 27.8 10 Norte 28 Noroeste 0 -- -- 31
2019-06-15 14:00:00 26.4 10 Norte 25 Noroeste 0 -- -- 34
2019-06-15 13:00:00 25.2 11 Norte 27 Noroeste 0 -- -- 37
2019-06-15 12:00:00 24.4 8 Norte 24 Nordeste 0 -- -- 38
2019-06-15 11:00:00 21.9 8 Norte 19 Nordeste 0 -- -- 50
2019-06-15 10:00:00 19.3 8 Norte 17 Noroeste 0 -- -- 58
2019-06-15 09:00:00 16.4 7 Noroeste 17 Norte 0 -- -- 66
2019-06-15 08:00:00 13.6 7 Noroeste 16 Noroeste 0 -- -- 69
2019-06-15 07:00:00 13 8 Noroeste 15 Noroeste 0 -- -- 70
2019-06-15 06:00:00 13 3 Noroeste 8 Noroeste 0 -- -- 73
2019-06-15 05:00:00 11.9 3 Noroeste 6 Noroeste 0 -- -- 88
2019-06-15 04:00:00 11.9 3 Oeste 5 Oeste 0 -- -- 88
2019-06-15 03:00:00 12.4 0 Calma 6 Este 0 -- -- 81
2019-06-15 02:00:00 13.4 6 Este 9 Este 0 -- -- 78
2019-06-15 01:00:00 15.5 3 Este 22 Oeste 0 -- -- 72
2019-06-15 00:00:00 16.7 14 Oeste 26 Oeste 0 -- -- 69
2019-06-14 23:00:00 17 15 Oeste 27 Oeste 0 -- -- 65
2019-06-14 22:00:00 17.6 20 Oeste 31 Noroeste 0 -- -- 56
2019-06-14 21:00:00 18.6 20 Oeste 37 Oeste 0 -- -- 59
2019-06-14 20:00:00 20.2 23 Oeste 38 Oeste 0 -- -- 51
2019-06-14 19:00:00 21.4 18 Oeste 35 Oeste 0 -- -- 46
2019-06-14 18:00:00 20.9 19 Oeste 36 Oeste 0 -- -- 50
2019-06-14 17:00:00 21.3 19 Oeste 42 Oeste 0 -- -- 46
2019-06-14 16:00:00 21.2 19 Oeste 44 Noroeste 0 -- -- 46
2019-06-14 15:00:00 21 22 Oeste 49 Noroeste 0 -- -- 45
2019-06-14 14:00:00 21.1 23 Oeste 41 Noroeste 0 -- -- 41
2019-06-14 13:00:00 20 26 Oeste 43 Oeste 0 -- -- 48
2019-06-14 12:00:00 18.8 21 Oeste 33 Sudoeste 0 -- -- 59
2019-06-14 11:00:00 18.5 15 Oeste 27 Oeste 0 -- -- 66
2019-06-14 10:00:00 17.4 16 Oeste 26 Oeste 0 -- -- 68
2019-06-14 09:00:00 17.3 14 Oeste 25 Oeste 0 -- -- 70
2019-06-14 08:00:00 15.9 7 Oeste 15 Sudoeste 0 -- -- 78
2019-06-14 07:00:00 16.2 9 Sudoeste 18 Sudoeste 0 -- -- 79
2019-06-14 06:00:00 16.2 10 Sudoeste 20 Sudoeste 0 -- -- 77
2019-06-14 05:00:00 16.2 10 Sudoeste 21 Sudoeste 0 -- -- 78
2019-06-14 04:00:00 16.7 12 Sudoeste 23 Sudoeste 0 -- -- 79
2019-06-14 03:00:00 17.4 18 Sudoeste 27 Sudoeste 0 -- -- 77
2019-06-14 02:00:00 18.6 9 Sudoeste 19 Sudoeste 0 -- -- 74
2019-06-14 01:00:00 18.4 14 Oeste 20 Oeste 0 -- -- 76
2019-06-14 00:00:00 18.1 9 Oeste 20 Oeste 0 -- -- 74
2019-06-13 23:00:00 18.9 9 Oeste 18 Oeste 0 -- -- 69
2019-06-13 22:00:00 20.2 16 Oeste 24 Oeste 0 -- -- 60
2019-06-13 21:00:00 21 19 Oeste 32 Noroeste 0 -- -- 54
2019-06-13 20:00:00 21.9 22 Oeste 36 Noroeste 0 -- -- 51
2019-06-13 19:00:00 24.1 24 Oeste 32 Oeste 0 -- -- 54
2019-06-13 18:00:00 24.9 21 Oeste 30 Este 0 -- -- 56
2019-06-13 17:00:00 27 19 Este 32 Este 0 -- -- 50
2019-06-13 16:00:00 26.9 18 Sudeste 32 Este 0 -- -- 51
2019-06-13 15:00:00 25.5 21 Este 33 Este 0 -- -- 55
2019-06-13 14:00:00 24.8 18 Este 35 Este 0 -- -- 56
2019-06-13 13:00:00 24.1 26 Este 45 Este 0 -- -- 58
2019-06-13 12:00:00 24.2 28 Este 49 Este 0 -- -- 59
2019-06-13 11:00:00 23.1 31 Este 43 Este 0 -- -- 65
2019-06-13 10:00:00 21.5 27 Este 38 Este 0 -- -- 70
2019-06-13 09:00:00 20.6 23 Este 31 Este 0 -- -- 73
2019-06-13 08:00:00 18.7 12 Este 23 Este 0 -- -- 80
2019-06-13 07:00:00 17.3 3 Este 23 Este 0 -- -- 81
2019-06-13 06:00:00 17.9 19 Este 28 Este 0 -- -- 80
2019-06-13 05:00:00 17.6 15 Este 28 Este 0 -- -- 84
2019-06-13 04:00:00 17.3 13 Este 22 Este 0 -- -- 85
2019-06-13 03:00:00 16.7 10 Este 17 Este 0 -- -- 87
2019-06-13 02:00:00 17 7 Este 17 Este 0 -- -- 87
2019-06-13 01:00:00 17.6 12 Este 33 Sudeste 0 -- -- 86
2019-06-13 00:00:00 18 23 Sudeste 32 Sudeste 0 -- -- 85
2019-06-12 23:00:00 18.6 15 Sudeste 30 Sudeste 0 -- -- 82
2019-06-12 22:00:00 19.9 21 Sudeste 33 Sudeste 0 -- -- 75
2019-06-12 21:00:00 21.7 24 Sudeste 36 Sudeste 0 -- -- 68
2019-06-12 20:00:00 23.6 27 Este 43 Sudeste 0 -- -- 61
2019-06-12 19:00:00 24.2 32 Este 49 Sudeste 0 -- -- 59
2019-06-12 18:00:00 24.8 35 Sudeste 49 Sudeste 0 -- -- 57
2019-06-12 17:00:00 25.4 35 Sudeste 51 Este 0 -- -- 54
2019-06-12 16:00:00 25.8 33 Este 49 Este 0 -- -- 51
2019-06-12 15:00:00 25.5 35 Este 51 Este 0 -- -- 53
2019-06-12 14:00:00 25.3 37 Este 57 Sudeste 0 -- -- 54
2019-06-12 13:00:00 24.8 40 Este 63 Este 0 -- -- 57
2019-06-12 12:00:00 23.8 42 Este 63 Este 0 -- -- 60
2019-06-12 11:00:00 22.5 45 Sudeste 62 Sudeste 0 -- -- 66
2019-06-12 10:00:00 21.7 39 Este 58 Este 0 -- -- 69
2019-06-12 09:00:00 20.8 35 Este 53 Este 0 -- -- 73
2019-06-12 08:00:00 19.2 27 Sudeste 40 Sudeste 0 -- -- 80
2019-06-12 07:00:00 17.4 14 Sudeste 22 Sudeste 0 -- -- 87
2019-06-12 06:00:00 16.5 9 Sur 34 Este 0 -- -- 92
2019-06-12 05:00:00 16.2 5 Sudeste 7 Sudeste 0 -- -- 93
2019-06-12 04:00:00 15.4 0 Calma 3 Nordeste 0 -- -- 94
2019-06-12 03:00:00 14.7 4 Este 10 Sudeste 0 -- -- 93
2019-06-12 02:00:00 15.2 5 Sudeste 10 Sudeste 0 -- -- 92
2019-06-12 01:00:00 15 2 Noroeste 5 Noroeste 0 -- -- 84
2019-06-12 00:00:00 16 2 Este 7 Sur 0 -- -- 80
2019-06-11 23:00:00 17.2 2 Oeste 5 Oeste 0 -- -- 79
2019-06-11 22:00:00 18.9 3 Sudoeste 17 Oeste 0 -- -- 73
2019-06-11 21:00:00 20.7 10 Oeste 31 Sudoeste 0 -- -- 67
2019-06-11 20:00:00 21.6 22 Oeste 34 Oeste 0 -- -- 64
2019-06-11 19:00:00 21.9 28 Oeste 36 Oeste 0 -- -- 63
2019-06-11 18:00:00 22.9 26 Oeste 38 Oeste 0 -- -- 57
2019-06-11 17:00:00 23.6 22 Oeste 38 Noroeste 0 -- -- 52
2019-06-11 16:00:00 23.2 21 Oeste 40 Oeste 0 -- -- 54
2019-06-11 15:00:00 22.1 31 Oeste 42 Oeste 0 -- -- 56
2019-06-11 14:00:00 22 21 Oeste 38 Oeste 0 -- -- 57
2019-06-11 13:00:00 21 24 Oeste 37 Oeste 0 -- -- 58
2019-06-11 12:00:00 20.9 19 Oeste 32 Sudoeste 0 -- -- 56
2019-06-11 11:00:00 20 15 Oeste 26 Oeste 0 -- -- 57
2019-06-11 10:00:00 18.5 14 Oeste 26 Oeste 0 -- -- 56
2019-06-11 09:00:00 16.6 7 Noroeste 22 Noroeste 0 -- -- 59
2019-06-11 08:00:00 13.3 7 Oeste 15 Noroeste 0 -- -- 81
2019-06-11 07:00:00 11.5 2 Oeste 6 Noroeste 0 -- -- 94
2019-06-11 06:00:00 12.2 3 Noroeste 5 Noroeste 0 -- -- 95
2019-06-11 05:00:00 12.7 3 Noroeste 4 Oeste 0 -- -- 94
2019-06-11 04:00:00 12.7 0 Calma 5 Este 0 -- -- 89
2019-06-11 03:00:00 13.6 5 Este 8 Este 0 -- -- 91
2019-06-11 02:00:00 14.1 0 Calma 4 Este 0 -- -- 88
2019-06-11 01:00:00 14.7 3 Sudeste 6 Este 0 -- -- 88
2019-06-11 00:00:00 15.9 0 Calma 8 Oeste 0 -- -- 83
2019-06-10 23:00:00 17 0 Calma 17 Oeste 0 -- -- 80
2019-06-10 22:00:00 17.8 9 Oeste 24 Oeste 0 -- -- 77
2019-06-10 21:00:00 19.5 17 Oeste 34 Oeste 0 -- -- 68
2019-06-10 20:00:00 20.9 26 Oeste 40 Oeste 0 -- -- 57
2019-06-10 19:00:00 22.1 28 Oeste 42 Oeste 0 -- -- 52
2019-06-10 18:00:00 22.6 31 Oeste 45 Oeste 0 -- -- 51
2019-06-10 17:00:00 23.9 27 Oeste 43 Sudoeste 0 -- -- 45
2019-06-10 16:00:00 24.3 27 Oeste 45 Oeste 0 -- -- 43
2019-06-10 15:00:00 24.5 24 Oeste 46 Oeste 0 -- -- 44
2019-06-10 14:00:00 24 26 Oeste 46 Oeste 0 -- -- 49
2019-06-10 13:00:00 23.9 18 Oeste 33 Oeste 0 -- -- 50
2019-06-10 12:00:00 22.9 13 Oeste 22 Oeste 0 -- -- 51
2019-06-10 11:00:00 21 3 Noroeste 11 Noroeste 0 -- -- 60
2019-06-10 10:00:00 18.8 6 Noroeste 16 Noroeste 0 -- -- 69
2019-06-10 09:00:00 17 9 Noroeste 15 Oeste 0 -- -- 81
2019-06-10 08:00:00 13.9 5 Este 6 Nordeste 0 -- -- 89
2019-06-10 07:00:00 13.4 0 Calma 6 Este 0 -- -- 89
2019-06-10 06:00:00 15 0 Calma 18 Noroeste 0 -- -- 85
2019-06-10 05:00:00 16.1 12 Noroeste 19 Noroeste 0 -- -- 83
2019-06-10 04:00:00 14 2 Este 7 Oeste 0 -- -- 92
2019-06-10 03:00:00 14 2 Oeste 5 Noroeste 0 -- -- 90
2019-06-10 02:00:00 14.4 2 Oeste 9 Este 0 -- -- 86
2019-06-10 01:00:00 15.2 5 Este 8 Este 0 -- -- 82
2019-06-10 00:00:00 15.9 6 Este 9 Este 0 -- -- 79
2019-06-09 23:00:00 16.9 2 Sur 6 Sur 0 -- -- 73
2019-06-09 22:00:00 18.6 3 Sudoeste 30 Oeste 0 -- -- 64
2019-06-09 21:00:00 19.9 18 Oeste 34 Oeste 0 -- -- 57
2019-06-09 20:00:00 21.6 22 Oeste 36 Sudoeste 0 -- -- 48
2019-06-09 19:00:00 23.4 24 Oeste 36 Oeste 0 -- -- 37
2019-06-09 18:00:00 24.7 22 Oeste 39 Oeste 0 -- -- 30
2019-06-09 17:00:00 25.2 23 Oeste 36 Oeste 0 -- -- 30
2019-06-09 16:00:00 24.9 21 Oeste 41 Sudoeste 0 -- -- 34
2019-06-09 15:00:00 24.2 24 Oeste 37 Oeste 0 -- -- 44
2019-06-09 14:00:00 23.7 17 Oeste 35 Oeste 0 -- -- 52
2019-06-09 13:00:00 22.7 17 Sudoeste 33 Oeste 0 -- -- 54
2019-06-09 12:00:00 22.4 17 Sudoeste 32 Oeste 0 -- -- 64
2019-06-09 11:00:00 21.2 22 Oeste 31 Oeste 0 -- -- 72
2019-06-09 10:00:00 20.3 10 Sur 21 Sudeste 0 -- -- 81
2019-06-09 09:00:00 18.2 5 Sur 18 Sudoeste 0 -- -- 85
2019-06-09 08:00:00 15 2 Noroeste 6 Oeste 0 -- -- 80
2019-06-09 07:00:00 15.8 2 Oeste 5 Nordeste 0 -- -- 81
2019-06-09 06:00:00 17 3 Este 5 Este 0 -- -- 82
2019-06-09 05:00:00 17.8 3 Sudeste 9 Sudeste 0 -- -- 81
2019-06-09 04:00:00 18.3 3 Sudeste 10 Sur 0 -- -- 79
2019-06-09 03:00:00 19 6 Sur 10 Sudoeste 0 -- -- 79
2019-06-09 02:00:00 18.8 3 Sur 9 Sur 0 -- -- 77
2019-06-09 01:00:00 19.3 3 Oeste 11 Sur 0 -- -- 75
2019-06-09 00:00:00 19.7 6 Sudoeste 14 Sudeste 0 -- -- 76
2019-06-08 23:00:00 20 6 Sudeste 12 Sudeste 0 -- -- 72
2019-06-08 22:00:00 20.8 5 Sudoeste 26 Sudeste 0 -- -- 56
2019-06-08 21:00:00 22.9 11 Sudeste 28 Este 0 -- -- 57
2019-06-08 20:00:00 25 20 Sudeste 35 Este 0 -- -- 54
2019-06-08 19:00:00 26.5 25 Este 40 Este 0 -- -- 46
2019-06-08 18:00:00 27.9 26 Este 42 Este 0 -- -- 39
2019-06-08 17:00:00 29 22 Sudeste 37 Sudeste 0 -- -- 35
2019-06-08 16:00:00 29.2 25 Este 45 Este 0 -- -- 33
2019-06-08 15:00:00 28.7 24 Sudeste 37 Este 0 -- -- 35
2019-06-08 14:00:00 28.3 15 Sudeste 28 Sudeste 0 -- -- 44
2019-06-08 13:00:00 27.3 14 Sudeste 24 Sudeste 0 -- -- 44
2019-06-08 12:00:00 25.2 10 Sudeste 22 Sudeste 0 -- -- 53
2019-06-08 11:00:00 22.8 9 Sudeste 17 Sudeste 0 -- -- 59
2019-06-08 10:00:00 19.4 9 Sudeste 13 Sur 0 -- -- 77
2019-06-08 09:00:00 14.8 4 Sudeste 9 Este 0 -- -- 85
2019-06-08 08:00:00 11.5 0 Calma 5 Este 0 -- -- 91
2019-06-08 07:00:00 10.6 2 Nordeste 5 Este 0 -- -- 91
2019-06-08 06:00:00 11 0 Calma 3 Oeste 0 -- -- 90
2019-06-08 05:00:00 11.1 0 Calma 3 Nordeste 0 -- -- 88
2019-06-08 04:00:00 12.1 4 Este 5 Este 0 -- -- 88
2019-06-08 03:00:00 13 3 Este 8 Oeste 0 -- -- 85
2019-06-08 02:00:00 14 4 Oeste 6 Noroeste 0 -- -- 85
2019-06-08 01:00:00 14.9 2 Noroeste 5 Noroeste 0 -- -- 80
2019-06-08 00:00:00 16.8 3 Norte 27 Oeste 0 -- -- 75
2019-06-07 23:00:00 18 21 Oeste 36 Oeste 0 -- -- 72
2019-06-07 22:00:00 18.7 24 Oeste 37 Oeste 0 -- -- 70
2019-06-07 21:00:00 20.9 27 Oeste 37 Oeste 0 -- -- 57
2019-06-07 20:00:00 23.5 26 Oeste 40 Oeste 0 -- -- 43
2019-06-07 19:00:00 24.9 26 Oeste 39 Oeste 0 -- -- 38
2019-06-07 18:00:00 27 16 Noroeste 27 Noroeste 0 -- -- 28
2019-06-07 17:00:00 27 9 Noroeste 25 Noroeste 0 -- -- 24
2019-06-07 16:00:00 26.1 14 Noroeste 27 Noroeste 0 -- -- 31
2019-06-07 15:00:00 25.1 13 Noroeste 28 Noroeste 0 -- -- 38
2019-06-07 14:00:00 23.6 11 Noroeste 29 Noroeste 0 -- -- 45
2019-06-07 13:00:00 22.3 15 Noroeste 29 Noroeste 0 -- -- 47
2019-06-07 12:00:00 20.9 12 Noroeste 22 Nordeste 0 -- -- 53
2019-06-07 11:00:00 19.4 9 Norte 24 Noroeste 0 -- -- 68
2019-06-07 10:00:00 18.2 12 Noroeste 21 Noroeste 0 -- -- 78
2019-06-07 09:00:00 17.4 10 Noroeste 22 Noroeste 0 -- -- 90
2019-06-07 08:00:00 16.6 5 Oeste 9 Noroeste 0.4 -- -- 95
2019-06-07 07:00:00 15.9 3 Nordeste 4 Este 0 -- -- 90
2019-06-07 06:00:00 15.7 3 Este 6 Nordeste 0 -- -- 85
2019-06-07 05:00:00 15.2 2 Nordeste 9 Oeste 0 -- -- 84
2019-06-07 04:00:00 14.8 5 Oeste 10 Oeste 0 -- -- 86
2019-06-07 03:00:00 14.6 0 Calma 7 Oeste 0 -- -- 85
2019-06-07 02:00:00 15.4 5 Oeste 14 Oeste 0 -- -- 83
2019-06-07 01:00:00 16 8 Oeste 13 Oeste 0 -- -- 81
2019-06-07 00:00:00 16.2 4 Sudoeste 10 Oeste 0 -- -- 80
2019-06-06 23:00:00 16.9 6 Oeste 32 Oeste 0 -- -- 77
2019-06-06 22:00:00 17.6 23 Oeste 31 Oeste 0 -- -- 74
2019-06-06 21:00:00 19.1 19 Oeste 30 Oeste 0 -- -- 63
2019-06-06 20:00:00 20.3 21 Oeste 35 Noroeste 0 -- -- 51
2019-06-06 19:00:00 21.9 20 Oeste 38 Oeste 0 -- -- 41
2019-06-06 18:00:00 22.7 21 Oeste 36 Oeste 0 -- -- 32
2019-06-06 17:00:00 23.1 24 Oeste 39 Oeste 0 -- -- 34
2019-06-06 16:00:00 24 22 Oeste 37 Oeste 0 -- -- 33
2019-06-06 15:00:00 24.4 19 Oeste 35 Oeste 0 -- -- 33
2019-06-06 14:00:00 24.7 21 Oeste 32 Oeste 0 -- -- 33
2019-06-06 13:00:00 24.3 13 Oeste 28 Oeste 0 -- -- 33
2019-06-06 12:00:00 23.1 8 Noroeste 17 Noroeste 0 -- -- 34
2019-06-06 11:00:00 21 6 Noroeste 15 Noroeste 0 -- -- 43
2019-06-06 10:00:00 18.3 5 Noroeste 10 Noroeste 0 -- -- 51
2019-06-06 09:00:00 15.7 3 Noroeste 14 Noroeste 0 -- -- 58
2019-06-06 08:00:00 13 5 Noroeste 12 Oeste 0 -- -- 68
2019-06-06 07:00:00 10.7 2 Este 10 Noroeste 0 -- -- 88
2019-06-06 06:00:00 10.8 3 Sudeste 6 Oeste 0 -- -- 93
2019-06-06 05:00:00 11.2 5 Este 7 Este 0 -- -- 89
2019-06-06 04:00:00 12.3 6 Oeste 8 Noroeste 0 -- -- 91
2019-06-06 03:00:00 12.8 3 Noroeste 5 Noroeste 0 -- -- 86
2019-06-06 02:00:00 13.5 2 Oeste 6 Este 0 -- -- 83
2019-06-06 01:00:00 14.1 3 Nordeste 6 Nordeste 0 -- -- 81
2019-06-06 00:00:00 15.5 3 Nordeste 8 Sudeste 0 -- -- 76
2019-06-05 23:00:00 16.9 0 Calma 31 Oeste 0 -- -- 72
2019-06-05 22:00:00 18.1 22 Oeste 36 Oeste 0 -- -- 68
2019-06-05 21:00:00 19.4 24 Oeste 39 Oeste 0 -- -- 64
2019-06-05 20:00:00 20.6 27 Oeste 42 Oeste 0 -- -- 58
2019-06-05 19:00:00 21.7 25 Oeste 41 Oeste 0 -- -- 52
2019-06-05 18:00:00 22.7 26 Oeste 39 Noroeste 0 -- -- 44
2019-06-05 17:00:00 22.8 26 Oeste 39 Oeste 0 -- -- 46
2019-06-05 16:00:00 22.7 28 Oeste 42 Oeste 0 -- -- 46
2019-06-05 15:00:00 22.7 24 Oeste 40 Oeste 0 -- -- 47
2019-06-05 14:00:00 22.8 20 Noroeste 38 Noroeste 0 -- -- 42
2019-06-05 13:00:00 22.1 14 Noroeste 33 Norte 0 -- -- 39
2019-06-05 12:00:00 20.9 15 Noroeste 31 Noroeste 0 -- -- 45
2019-06-05 11:00:00 19.5 18 Noroeste 31 Noroeste 0 -- -- 47
2019-06-05 10:00:00 18.1 15 Noroeste 32 Noroeste 0 -- -- 56
2019-06-05 09:00:00 16.5 15 Noroeste 33 Noroeste 0 -- -- 64
2019-06-05 08:00:00 14.8 18 Noroeste 32 Noroeste 0 -- -- 70
2019-06-05 07:00:00 14.9 21 Noroeste 31 Noroeste 0 -- -- 66
2019-06-05 06:00:00 15.9 15 Noroeste 32 Noroeste 0 -- -- 64
2019-06-05 05:00:00 17 22 Noroeste 32 Noroeste 0 -- -- 62
2019-06-05 04:00:00 17.9 22 Noroeste 37 Noroeste 0 -- -- 66
2019-06-05 03:00:00 18.6 16 Noroeste 31 Oeste 0 -- -- 69
2019-06-05 02:00:00 19.6 21 Oeste 32 Oeste 0 -- -- 77
2019-06-05 01:00:00 19.5 19 Oeste 28 Oeste 0 -- -- 85
2019-06-05 00:00:00 18.7 19 Oeste 30 Oeste 0 -- -- 89
2019-06-04 23:00:00 18.9 21 Oeste 31 Oeste 0 -- -- 87
2019-06-04 22:00:00 19.4 25 Oeste 38 Oeste 0 -- -- 82
2019-06-04 21:00:00 21.1 22 Oeste 39 Oeste 0 -- -- 70
2019-06-04 20:00:00 21.9 27 Oeste 44 Oeste 0 -- -- 69
2019-06-04 19:00:00 23.5 28 Oeste 40 Oeste 0 -- -- 62
2019-06-04 18:00:00 24.8 27 Oeste 41 Oeste 0 -- -- 54
2019-06-04 17:00:00 25.2 24 Oeste 39 Oeste 0 -- -- 53
2019-06-04 16:00:00 26.4 21 Oeste 33 Oeste 0 -- -- 46
2019-06-04 15:00:00 26.7 19 Oeste 33 Oeste 0 -- -- 46
2019-06-04 14:00:00 26.4 21 Oeste 33 Oeste 0 -- -- 52
2019-06-04 13:00:00 26.2 17 Oeste 27 Oeste 0 -- -- 53
2019-06-04 12:00:00 25.1 11 Oeste 22 Oeste 0 -- -- 58
2019-06-04 11:00:00 23.6 6 Oeste 19 Oeste 0 -- -- 67
2019-06-04 10:00:00 20.5 4 Nordeste 10 Sudeste 0 -- -- 69
2019-06-04 09:00:00 16.3 5 Este 9 Este 0 -- -- 68
2019-06-04 08:00:00 12.9 0 Calma 4 Este 0 -- -- 75
2019-06-04 07:00:00 11.7 0 Calma 5 Sudeste 0 -- -- 77
2019-06-04 06:00:00 12.1 2 Este 5 Este 0 -- -- 74
2019-06-04 05:00:00 12.9 2 Oeste 4 Oeste 0 -- -- 70
2019-06-04 04:00:00 13.5 2 Noroeste 4 Oeste 0 -- -- 66
2019-06-04 03:00:00 14.1 2 Oeste 5 Oeste 0 -- -- 69
2019-06-04 02:00:00 15 0 Calma 4 Este 0 -- -- 64
2019-06-04 01:00:00 16.7 2 Noroeste 6 Noroeste 0 -- -- 62
2019-06-04 00:00:00 18 4 Noroeste 8 Noroeste 0 -- -- 60
2019-06-03 23:00:00 20.3 2 Oeste 10 Noroeste 0 -- -- 56
2019-06-03 22:00:00 23.1 3 Sur 9 Oeste 0 -- -- 43
2019-06-03 21:00:00 26.5 3 Sudeste 28 Sudeste 0 -- -- 32
2019-06-03 20:00:00 28.3 17 Sudeste 28 Este 0 -- -- 31
2019-06-03 19:00:00 30.4 21 Sudeste 30 Sudeste 0 -- -- 27
2019-06-03 18:00:00 31.7 20 Este 30 Sudeste 0 -- -- 24
2019-06-03 17:00:00 31.9 19 Este 35 Este 0 -- -- 23
2019-06-03 16:00:00 31.7 20 Sudeste 37 Este 0 -- -- 24
2019-06-03 15:00:00 30.7 23 Sudeste 37 Este 0 -- -- 26
2019-06-03 14:00:00 29.6 24 Sudeste 36 Este 0 -- -- 29
2019-06-03 13:00:00 28.1 27 Este 44 Este 0 -- -- 33
2019-06-03 12:00:00 26.7 25 Este 34 Este 0 -- -- 37
2019-06-03 11:00:00 25.6 21 Este 29 Este 0 -- -- 41
2019-06-03 10:00:00 23.1 19 Este 28 Este 0 -- -- 48
2019-06-03 09:00:00 21.2 22 Este 29 Este 0 -- -- 52
2019-06-03 08:00:00 18.8 16 Sudeste 25 Sudeste 0 -- -- 54
2019-06-03 07:00:00 18.4 13 Sudeste 24 Sudeste 0 -- -- 45
2019-06-03 06:00:00 17.9 13 Sudeste 22 Este 0 -- -- 47
2019-06-03 05:00:00 17.5 2 Noroeste 18 Sudeste 0 -- -- 46
2019-06-03 04:00:00 17.5 6 Sudeste 14 Este 0 -- -- 49
2019-06-03 03:00:00 19.6 13 Sudeste 30 Este 0 -- -- 40
2019-06-03 02:00:00 19.5 14 Sudeste 22 Sudeste 0 -- -- 42
2019-06-03 01:00:00 19.2 12 Sudeste 20 Este 0 -- -- 46
2019-06-03 00:00:00 20.2 10 Este 35 Este 0 -- -- 45
2019-06-02 23:00:00 20.4 23 Sudeste 36 Sudeste 0 -- -- 46
2019-06-02 22:00:00 21.1 29 Sudeste 48 Sudeste 0 -- -- 45
2019-06-02 21:00:00 23.3 36 Sudeste 59 Este 0 -- -- 37
2019-06-02 20:00:00 25.4 46 Este 62 Este 0 -- -- 29
2019-06-02 19:00:00 26.7 41 Este 63 Este 0 -- -- 27
2019-06-02 18:00:00 27.8 37 Sudeste 59 Sudeste 0 -- -- 27
2019-06-02 17:00:00 28.4 39 Sudeste 55 Este 0 -- -- 28
2019-06-02 16:00:00 28.5 39 Este 57 Este 0 -- -- 30
2019-06-02 15:00:00 28.4 39 Este 55 Sudeste 0 -- -- 29
2019-06-02 14:00:00 28 41 Este 59 Sudeste 0 -- -- 30
2019-06-02 13:00:00 27.4 38 Este 60 Este 0 -- -- 34
2019-06-02 12:00:00 26.2 41 Este 59 Este 0 -- -- 33
2019-06-02 11:00:00 25.1 40 Este 51 Este 0 -- -- 34
2019-06-02 10:00:00 23.6 32 Este 53 Este 0 -- -- 35
2019-06-02 09:00:00 22.2 29 Este 40 Este 0 -- -- 38
2019-06-02 08:00:00 20.5 25 Sudeste 37 Sudeste 0 -- -- 41
2019-06-02 07:00:00 19.5 19 Sudeste 41 Este 0 -- -- 44
2019-06-02 06:00:00 20 29 Este 39 Este 0 -- -- 42
2019-06-02 05:00:00 20 15 Sudeste 29 Sudeste 0 -- -- 45
2019-06-02 04:00:00 20.5 23 Sudeste 44 Sudeste 0 -- -- 46
2019-06-02 03:00:00 20.5 30 Sudeste 46 Sudeste 0 -- -- 45
2019-06-02 02:00:00 20.5 37 Sudeste 59 Sudeste 0 -- -- 46
2019-06-02 01:00:00 20.6 31 Sudeste 45 Sudeste 0 -- -- 44
2019-06-02 00:00:00 20.2 15 Sudeste 53 Este 0 -- -- 45
2019-06-01 23:00:00 20.1 36 Este 58 Sudeste 0 -- -- 52
2019-06-01 22:00:00 20.6 39 Este 60 Sudeste 0 -- -- 50
2019-06-01 21:00:00 22.2 41 Este 57 Este 0 -- -- 45
2019-06-01 20:00:00 24.2 39 Este 59 Este 0 -- -- 37
2019-06-01 19:00:00 25.3 43 Este 71 Este 0 -- -- 36
2019-06-01 18:00:00 26.2 47 Este 72 Este 0 -- -- 34
2019-06-01 17:00:00 26.6 53 Este 73 Este 0 -- -- 32
2019-06-01 16:00:00 26.5 50 Este 72 Sudeste 0 -- -- 36
2019-06-01 15:00:00 26.5 48 Este 74 Este 0 -- -- 37
2019-06-01 14:00:00 26.5 41 Este 75 Este 0 -- -- 37
2019-06-01 13:00:00 25.3 54 Este 77 Este 0 -- -- 38
2019-06-01 12:00:00 24.7 39 Este 66 Este 0 -- -- 42
2019-06-01 11:00:00 23.3 40 Este 64 Este 0 -- -- 46
2019-06-01 10:00:00 22.3 32 Este 61 Sudeste 0 -- -- 48
2019-06-01 09:00:00 20.9 26 Sudeste 53 Este 0 -- -- 51
2019-06-01 08:00:00 19.2 28 Sudeste 43 Este 0 -- -- 57
2019-06-01 07:00:00 18.5 19 Sudeste 39 Este 0 -- -- 59
2019-06-01 06:00:00 18.8 19 Sudeste 55 Sudeste 0 -- -- 57
2019-06-01 05:00:00 19.1 30 Sudeste 53 Este 0 -- -- 54
2019-06-01 04:00:00 19 27 Sudeste 68 Este 0 -- -- 59
2019-06-01 03:00:00 19.3 50 Este 72 Este 0 -- -- 59
2019-06-01 02:00:00 19.3 45 Este 71 Este 0 -- -- 61
2019-06-01 01:00:00 19.8 51 Este 77 Este 0 -- -- 59
2019-06-01 00:00:00 19.9 50 Este 73 Este 0 -- -- 58
2019-05-31 23:00:00 19.9 50 Este 71 Este 0 -- -- 58
2019-05-31 22:00:00 20.2 44 Este 66 Este 0 -- -- 53
2019-05-31 21:00:00 21.7 44 Este 67 Sudeste 0 -- -- 42
2019-05-31 20:00:00 22.9 48 Este 64 Este 0 -- -- 39
2019-05-31 19:00:00 24.4 42 Este 73 Este 0 -- -- 37
2019-05-31 18:00:00 25.4 47 Este 77 Este 0 -- -- 35
2019-05-31 17:00:00 25.5 57 Este 77 Este 0 -- -- 33
2019-05-31 16:00:00 25.5 54 Este 82 Este 0 -- -- 35
2019-05-31 15:00:00 25.8 49 Este 84 Este 0 -- -- 34
2019-05-31 14:00:00 25.1 58 Este 86 Este 0 -- -- 37
2019-05-31 13:00:00 24.4 58 Este 86 Este 0 -- -- 39
2019-05-31 12:00:00 23.8 51 Sudeste 91 Este 0 -- -- 42
2019-05-31 11:00:00 22.8 53 Este 81 Este 0 -- -- 46
2019-05-31 10:00:00 21.7 47 Este 75 Este 0 -- -- 53
2019-05-31 09:00:00 20 46 Este 71 Este 0 -- -- 61
2019-05-31 08:00:00 18.8 37 Este 63 Sudeste 0 -- -- 65
2019-05-31 07:00:00 18.2 37 Este 67 Este 0 -- -- 66
2019-05-31 06:00:00 18.1 36 Este 60 Este 0 -- -- 68
2019-05-31 05:00:00 18 33 Este 53 Este 0 -- -- 70
2019-05-31 04:00:00 18.3 27 Sudeste 60 Este 0 -- -- 69
2019-05-31 03:00:00 18.6 40 Este 60 Sudeste 0 -- -- 64
2019-05-31 02:00:00 19 40 Este 64 Este 0 -- -- 58
2019-05-31 01:00:00 19 34 Este 60 Este 0 -- -- 60
2019-05-31 00:00:00 19.4 42 Este 64 Este 0 -- -- 54
2019-05-30 23:00:00 19.4 37 Este 62 Sudeste 0 -- -- 52
2019-05-30 22:00:00 19.6 31 Este 62 Este 0 -- -- 54
2019-05-30 21:00:00 20.9 39 Este 66 Este 0 -- -- 53
2019-05-30 20:00:00 22.6 42 Este 67 Sudeste 0 -- -- 48
2019-05-30 19:00:00 23.5 47 Este 73 Sudeste 0 -- -- 47
2019-05-30 18:00:00 23.9 51 Este 77 Este 0 -- -- 47
2019-05-30 17:00:00 24.4 49 Este 75 Este 0 -- -- 45
2019-05-30 16:00:00 24.7 54 Este 78 Este 0 -- -- 45
2019-05-30 15:00:00 24.5 57 Este 79 Este 0 -- -- 42
2019-05-30 14:00:00 24.7 45 Este 73 Este 0 -- -- 45
2019-05-30 13:00:00 23.8 49 Sudeste 75 Sudeste 0 -- -- 49
2019-05-30 12:00:00 23.2 51 Este 79 Este 0 -- -- 52
2019-05-30 11:00:00 22.4 54 Este 78 Este 0 -- -- 55
2019-05-30 10:00:00 21.5 51 Este 76 Este 0 -- -- 60
2019-05-30 09:00:00 20.5 41 Este 67 Sudeste 0 -- -- 60
2019-05-30 08:00:00 19.5 39 Este 60 Este 0 -- -- 54
2019-05-30 07:00:00 18.6 26 Sudeste 50 Este 0 -- -- 60
2019-05-30 06:00:00 19 31 Este 58 Este 0 -- -- 55
2019-05-30 05:00:00 18.9 29 Sudeste 50 Este 0 -- -- 58
2019-05-30 04:00:00 19 33 Este 51 Sudeste 0 -- -- 61
2019-05-30 03:00:00 19.1 28 Sudeste 51 Sudeste 0 -- -- 61
2019-05-30 02:00:00 19.3 39 Este 60 Este 0 -- -- 63
2019-05-30 01:00:00 19.2 37 Sudeste 57 Sudeste 0 -- -- 66
2019-05-30 00:00:00 19.3 36 Sudeste 55 Sudeste 0 -- -- 64
2019-05-29 23:00:00 19.6 37 Sudeste 59 Sudeste 0 -- -- 65
2019-05-29 22:00:00 20.3 40 Sudeste 59 Sudeste 0 -- -- 56
2019-05-29 21:00:00 22.1 40 Sudeste 59 Este 0 -- -- 46
2019-05-29 20:00:00 23.8 42 Este 64 Este 0 -- -- 41
2019-05-29 19:00:00 24.7 47 Sudeste 64 Este 0 -- -- 38
2019-05-29 18:00:00 25.5 45 Sudeste 66 Este 0 -- -- 38
2019-05-29 17:00:00 26.5 46 Este 65 Este 0 -- -- 37
2019-05-29 16:00:00 26.4 48 Sudeste 65 Sudeste 0 -- -- 36
2019-05-29 15:00:00 26.3 49 Este 65 Este 0 -- -- 39
2019-05-29 14:00:00 26.3 50 Este 70 Este 0 -- -- 40
2019-05-29 13:00:00 25.7 47 Este 70 Este 0 -- -- 43
2019-05-29 12:00:00 25.2 50 Este 72 Este 0 -- -- 45
2019-05-29 11:00:00 24.1 52 Este 78 Este 0 -- -- 50
2019-05-29 10:00:00 23.4 48 Este 67 Este 0 -- -- 53
2019-05-29 09:00:00 22.3 39 Este 57 Este 0 -- -- 55
2019-05-29 08:00:00 20.8 39 Este 58 Sudeste 0 -- -- 64
2019-05-29 07:00:00 20.2 33 Este 52 Sudeste 0 -- -- 61
2019-05-29 06:00:00 19.6 29 Sudeste 44 Sudeste 0 -- -- 70
2019-05-29 05:00:00 17.3 18 Sudeste 26 Sudeste 0 -- -- 78
2019-05-29 04:00:00 14.7 2 Este 3 Este 0 -- -- 87
2019-05-29 03:00:00 15.5 2 Oeste 6 Noroeste 0 -- -- 85
2019-05-29 02:00:00 16 4 Noroeste 7 Noroeste 0 -- -- 84
2019-05-29 01:00:00 16.6 4 Noroeste 5 Noroeste 0 -- -- 78
2019-05-29 00:00:00 18.4 5 Oeste 9 Oeste 0 -- -- 76
2019-05-28 23:00:00 19.6 5 Oeste 16 Oeste 0 -- -- 72
2019-05-28 22:00:00 21.4 12 Oeste 17 Oeste 0 -- -- 65
2019-05-28 21:00:00 25.2 10 Oeste 18 Sudoeste 0 -- -- 54
2019-05-28 20:00:00 28.3 10 Oeste 19 Oeste 0 -- -- 40
2019-05-28 19:00:00 29.3 12 Oeste 26 Oeste 0 -- -- 31
2019-05-28 18:00:00 29.5 18 Oeste 29 Oeste 0 -- -- 30
2019-05-28 17:00:00 29.9 21 Oeste 28 Oeste 0 -- -- 34
2019-05-28 16:00:00 30 20 Oeste 31 Oeste 0 -- -- 36
2019-05-28 15:00:00 29.8 21 Oeste 31 Oeste 0 -- -- 42
2019-05-28 14:00:00 29.8 14 Sudoeste 29 Sudoeste 0 -- -- 45
2019-05-28 13:00:00 29.2 9 Sudoeste 22 Sudoeste 0 -- -- 48
2019-05-28 12:00:00 28 7 Sudoeste 26 Sur 0 -- -- 54
2019-05-28 11:00:00 26.2 13 Sudeste 18 Sudeste 0 -- -- 60
2019-05-28 10:00:00 22.9 7 Este 13 Este 0 -- -- 70
2019-05-28 09:00:00 18.9 7 Este 9 Este 0 -- -- 75
2019-05-28 08:00:00 15.6 0 Calma 4 Noroeste 0 -- -- 87
2019-05-28 07:00:00 14.6 2 Oeste 4 Nordeste 0 -- -- 86
2019-05-28 06:00:00 15.4 3 Este 5 Sudeste 0 -- -- 85
2019-05-28 05:00:00 16 2 Norte 7 Oeste 0 -- -- 82
2019-05-28 04:00:00 16.1 0 Calma 5 Oeste 0 -- -- 80
2019-05-28 03:00:00 16.6 3 Noroeste 6 Noroeste 0 -- -- 75
2019-05-28 02:00:00 17.6 0 Calma 6 Noroeste 0 -- -- 73
2019-05-28 01:00:00 18.4 0 Calma 6 Noroeste 0 -- -- 73
2019-05-28 00:00:00 18.8 4 Oeste 7 Oeste 0 -- -- 75
2019-05-27 23:00:00 20.2 4 Noroeste 8 Oeste 0 -- -- 71
2019-05-27 22:00:00 22.5 5 Oeste 19 Oeste 0 -- -- 63
2019-05-27 21:00:00 24.9 16 Oeste 37 Oeste 0 -- -- 50
2019-05-27 20:00:00 28 27 Oeste 37 Oeste 0 -- -- 37
2019-05-27 19:00:00 29.8 27 Oeste 37 Oeste 0 -- -- 34
2019-05-27 18:00:00 31.2 27 Oeste 37 Noroeste 0 -- -- 33
2019-05-27 17:00:00 32.8 26 Oeste 36 Oeste 0 -- -- 28
2019-05-27 16:00:00 32.7 23 Oeste 33 Oeste 0 -- -- 31
2019-05-27 15:00:00 32.7 15 Sudoeste 31 Oeste 0 -- -- 33
2019-05-27 14:00:00 32.6 8 Noroeste 28 Este 0 -- -- 25
2019-05-27 13:00:00 30.8 5 Oeste 16 Noroeste 0 -- -- 32
2019-05-27 12:00:00 29.2 9 Nordeste 16 Este 0 -- -- 34
2019-05-27 11:00:00 26.8 5 Nordeste 9 Nordeste 0 -- -- 42
2019-05-27 10:00:00 23 4 Sudeste 6 Sudeste 0 -- -- 50
2019-05-27 09:00:00 18.6 0 Calma 3 Este 0 -- -- 63
2019-05-27 08:00:00 14.6 3 Noroeste 6 Noroeste 0 -- -- 73
2019-05-27 07:00:00 14 5 Noroeste 6 Noroeste 0 -- -- 75
2019-05-27 06:00:00 14.4 4 Oeste 5 Noroeste 0 -- -- 73
2019-05-27 05:00:00 14.7 3 Oeste 7 Noroeste 0 -- -- 73
2019-05-27 04:00:00 14.9 5 Noroeste 6 Oeste 0 -- -- 73
2019-05-27 03:00:00 15.6 3 Oeste 6 Noroeste 0 -- -- 73
2019-05-27 02:00:00 16.3 3 Oeste 5 Oeste 0 -- -- 71
2019-05-27 01:00:00 17 3 Noroeste 5 Noroeste 0 -- -- 64
2019-05-27 00:00:00 18 4 Oeste 6 Oeste 0 -- -- 63
2019-05-26 23:00:00 20.2 3 Oeste 7 Sudeste 0 -- -- 56
2019-05-26 22:00:00 22.6 4 Sudeste 15 Este 0 -- -- 49
2019-05-26 21:00:00 25.3 12 Este 18 Este 0 -- -- 44
2019-05-26 20:00:00 28.1 10 Este 27 Este 0 -- -- 37
2019-05-26 19:00:00 29.5 6 Este 23 Este 0 -- -- 35
2019-05-26 18:00:00 29.5 10 Sudeste 25 Este 0 -- -- 34
2019-05-26 17:00:00 29.5 13 Sudeste 30 Este 0 -- -- 34
2019-05-26 16:00:00 29.3 12 Este 27 Este 0 -- -- 34
2019-05-26 15:00:00 28.8 16 Este 32 Este 0 -- -- 35
2019-05-26 14:00:00 28 19 Sudeste 39 Sudeste 0 -- -- 38
2019-05-26 13:00:00 27.3 21 Este 36 Este 0 -- -- 37
2019-05-26 12:00:00 25.9 21 Este 37 Este 0 -- -- 42
2019-05-26 11:00:00 24.3 24 Este 35 Este 0 -- -- 41
2019-05-26 10:00:00 22.4 21 Este 33 Este 0 -- -- 46
2019-05-26 09:00:00 20 21 Sudeste 31 Sudeste 0 -- -- 54
2019-05-26 08:00:00 17.4 10 Sudeste 25 Sudeste 0 -- -- 62
2019-05-26 07:00:00 16.6 16 Sudeste 22 Sudeste 0 -- -- 64
2019-05-26 06:00:00 16.7 14 Sudeste 21 Sudeste 0 -- -- 66
2019-05-26 05:00:00 16.5 10 Sudeste 20 Sudeste 0 -- -- 71
2019-05-26 04:00:00 17 15 Sudeste 27 Sudeste 0 -- -- 78
2019-05-26 03:00:00 17.1 15 Sudeste 29 Sudeste 0 -- -- 82
2019-05-26 02:00:00 17.5 17 Sudeste 30 Sudeste 0 -- -- 82
2019-05-26 01:00:00 17.7 10 Sudeste 21 Sudeste 0 -- -- 80
2019-05-26 00:00:00 17.9 11 Sudeste 18 Este 0 -- -- 77
2019-05-25 23:00:00 18.9 12 Sudeste 25 Sudeste 0 -- -- 69
2019-05-25 22:00:00 20 16 Sudeste 25 Este 0 -- -- 65
2019-05-25 21:00:00 22.3 18 Este 30 Este 0 -- -- 61
2019-05-25 20:00:00 24.7 22 Este 31 Este 0 -- -- 55
2019-05-25 19:00:00 26.7 6 Sudoeste 21 Oeste 0 -- -- 52
2019-05-25 18:00:00 26.5 17 Oeste 29 Sudoeste 0 -- -- 53
2019-05-25 17:00:00 27.2 20 Oeste 32 Oeste 0 -- -- 51
2019-05-25 16:00:00 27.2 19 Oeste 30 Oeste 0 -- -- 52
2019-05-25 15:00:00 28.1 8 Noroeste 19 Noroeste 0 -- -- 41
2019-05-25 14:00:00 26.8 7 Sudoeste 23 Este 0 -- -- 47
2019-05-25 13:00:00 26.4 8 Este 26 Este 0 -- -- 48
2019-05-25 12:00:00 24.5 10 Este 25 Este 0 -- -- 54
2019-05-25 11:00:00 23.1 15 Este 29 Este 0 -- -- 61
2019-05-25 10:00:00 21.4 22 Este 30 Este 0 -- -- 68
2019-05-25 09:00:00 19.5 18 Sudeste 31 Sudeste 0 -- -- 77
2019-05-25 08:00:00 17.7 12 Sudeste 28 Sudeste 0 -- -- 84
2019-05-25 07:00:00 17.4 15 Sudeste 36 Sudeste 0 -- -- 86
2019-05-25 06:00:00 17.6 19 Sudeste 42 Sudeste 0 -- -- 86
2019-05-25 05:00:00 16.9 14 Sur 26 Sur 0 -- -- 89
2019-05-25 04:00:00 17 10 Sur 26 Sur 0 -- -- 88
2019-05-25 03:00:00 17.1 15 Sudeste 33 Sur 0 -- -- 90
2019-05-25 02:00:00 16.4 12 Este 22 Sudeste 0 -- -- 94
2019-05-25 01:00:00 15.8 5 Sudeste 11 Sudeste 0 -- -- 91
2019-05-25 00:00:00 16.3 4 Sudeste 8 Sudeste 0 -- -- 88
2019-05-24 23:00:00 17.1 4 Sur 12 Sur 0 -- -- 82
2019-05-24 22:00:00 18.6 4 Sur 10 Sudoeste 0 -- -- 77
2019-05-24 21:00:00 20.3 4 Sur 20 Sudoeste 0 -- -- 67
2019-05-24 20:00:00 21.8 15 Oeste 35 Oeste 0 -- -- 58
2019-05-24 19:00:00 22.8 25 Oeste 39 Oeste 0 -- -- 54
2019-05-24 18:00:00 23.6 29 Oeste 41 Oeste 0 -- -- 52
2019-05-24 17:00:00 23.8 29 Oeste 46 Oeste 0 -- -- 50
2019-05-24 16:00:00 23.4 26 Oeste 38 Sudoeste 0 -- -- 54
2019-05-24 15:00:00 23.2 18 Sudoeste 33 Sudoeste 0 -- -- 55
2019-05-24 14:00:00 22.8 18 Oeste 31 Oeste 0 -- -- 53
2019-05-24 13:00:00 22.1 17 Sudoeste 29 Oeste 0 -- -- 51
2019-05-24 12:00:00 21.2 15 Sudoeste 26 Oeste 0 -- -- 57
2019-05-24 11:00:00 20.2 13 Oeste 21 Oeste 0 -- -- 64
2019-05-24 10:00:00 18.4 11 Oeste 24 Oeste 0 -- -- 67
2019-05-24 09:00:00 16.7 8 Noroeste 22 Oeste 0 -- -- 72
2019-05-24 08:00:00 14.9 0 Calma 10 Oeste 0 -- -- 81
2019-05-24 07:00:00 16.5 6 Noroeste 11 Noroeste 0 -- -- 79
2019-05-24 06:00:00 15 4 Noroeste 9 Noroeste 0 -- -- 83
2019-05-24 05:00:00 14.1 3 Nordeste 5 Nordeste 0 -- -- 87
2019-05-24 04:00:00 14.8 3 Este 5 Noroeste 0 -- -- 84
2019-05-24 03:00:00 15.2 4 Noroeste 7 Oeste 0 -- -- 78
2019-05-24 02:00:00 16 4 Oeste 7 Este 0 -- -- 78
2019-05-24 01:00:00 17.6 3 Oeste 6 Noroeste 0 -- -- 74
2019-05-24 00:00:00 18.3 2 Noroeste 5 Noroeste 0 -- -- 72
2019-05-23 23:00:00 20.1 2 Norte 14 Nordeste 0 -- -- 66
2019-05-23 22:00:00 21.7 4 Sudeste 23 Oeste 0 -- -- 63
2019-05-23 21:00:00 24.3 16 Oeste 25 Oeste 0 -- -- 53
2019-05-23 20:00:00 27.2 19 Oeste 28 Oeste 0 -- -- 39
2019-05-23 19:00:00 28.6 22 Oeste 30 Oeste 0 -- -- 37
2019-05-23 18:00:00 28.9 23 Oeste 31 Oeste 0 -- -- 40
2019-05-23 17:00:00 32 7 Sur 23 Sudeste 0 -- -- 24
2019-05-23 16:00:00 31.4 14 Sudeste 30 Este 0 -- -- 25
2019-05-23 15:00:00 30.5 10 Este 29 Sudeste 0 -- -- 27
2019-05-23 14:00:00 29.8 18 Sudeste 31 Sudeste 0 -- -- 27
2019-05-23 13:00:00 28.2 11 Este 26 Este 0 -- -- 30
2019-05-23 12:00:00 27 17 Este 28 Sudeste 0 -- -- 31
2019-05-23 11:00:00 24.9 20 Este 31 Este 0 -- -- 32
2019-05-23 10:00:00 22.6 20 Sudeste 27 Sudeste 0 -- -- 38
2019-05-23 09:00:00 19.3 9 Sudeste 13 Sudeste 0 -- -- 57
2019-05-23 08:00:00 14.1 0 Calma 6 Noroeste 0 -- -- 76
2019-05-23 07:00:00 13.1 3 Noroeste 7 Noroeste 0 -- -- 82
2019-05-23 06:00:00 13.3 3 Oeste 5 Oeste 0 -- -- 80
2019-05-23 05:00:00 13.8 4 Oeste 6 Sudoeste 0 -- -- 80
2019-05-23 04:00:00 14 2 Oeste 4 Oeste 0 -- -- 80
2019-05-23 03:00:00 15.9 0 Calma 4 Sudeste 0 -- -- 75
2019-05-23 02:00:00 16.4 0 Calma 16 Sudeste 0 -- -- 74
2019-05-23 01:00:00 15.9 6 Este 16 Este 0 -- -- 74
2019-05-23 00:00:00 16.7 7 Sudeste 11 Sudeste 0 -- -- 65
2019-05-22 23:00:00 18.1 6 Sudeste 18 Sudeste 0 -- -- 59
2019-05-22 22:00:00 20 11 Sudeste 22 Este 0 -- -- 56
2019-05-22 21:00:00 22.8 13 Este 34 Sudeste 0 -- -- 47
2019-05-22 20:00:00 24.9 17 Sudeste 26 Sudeste 0 -- -- 42
2019-05-22 19:00:00 26.5 19 Sudeste 31 Este 0 -- -- 40
2019-05-22 18:00:00 28 23 Este 37 Este 0 -- -- 38
2019-05-22 17:00:00 28.9 21 Sudeste 36 Este 0 -- -- 36
2019-05-22 16:00:00 28.7 23 Este 34 Este 0 -- -- 37
2019-05-22 15:00:00 28.1 19 Sudeste 34 Este 0 -- -- 38
2019-05-22 14:00:00 27 20 Este 32 Sudeste 0 -- -- 44
2019-05-22 13:00:00 26 21 Este 37 Este 0 -- -- 47
2019-05-22 12:00:00 24.1 24 Sudeste 37 Este 0 -- -- 55
2019-05-22 11:00:00 22.4 18 Sudeste 36 Este 0 -- -- 64
2019-05-22 10:00:00 20.7 20 Este 40 Sudeste 0 -- -- 70
2019-05-22 09:00:00 18.4 19 Este 30 Este 0 -- -- 77
2019-05-22 08:00:00 14.6 7 Sudeste 10 Sudeste 0 -- -- 94
2019-05-22 07:00:00 12.3 2 Sur 6 Sur 0 -- -- 97
2019-05-22 06:00:00 11.9 0 Calma -- -- 0 -- -- 96
2019-05-22 05:00:00 11.9 0 Calma 5 Este 0 -- -- 94
2019-05-22 04:00:00 12.7 0 Calma 4 Sudeste 0 -- -- 95
2019-05-22 03:00:00 12.7 0 Calma 4 Este 0 -- -- 91
2019-05-22 02:00:00 13.7 0 Calma 4 Noroeste 0 -- -- 91
2019-05-22 01:00:00 14.3 3 Noroeste 6 Noroeste 0 -- -- 90
2019-05-22 00:00:00 15.4 3 Noroeste 11 Noroeste 0 -- -- 81
2019-05-21 23:00:00 17.1 4 Norte 12 Oeste 0 -- -- 84
2019-05-21 22:00:00 18.5 8 Oeste 29 Noroeste 0 -- -- 77
2019-05-21 21:00:00 20.7 22 Noroeste 31 Oeste 0 -- -- 64
2019-05-21 20:00:00 22.9 24 Noroeste 33 Oeste 0 -- -- 49
2019-05-21 19:00:00 23.9 24 Oeste 35 Oeste 0 -- -- 45
2019-05-21 18:00:00 24.3 26 Oeste 34 Oeste 0 -- -- 44
2019-05-21 17:00:00 24.4 27 Oeste 40 Oeste 0 -- -- 44
2019-05-21 16:00:00 24.5 27 Oeste 41 Oeste 0 -- -- 44
2019-05-21 15:00:00 25 22 Oeste 36 Oeste 0 -- -- 43
2019-05-21 14:00:00 24.6 21 Oeste 33 Sudoeste 0 -- -- 47
2019-05-21 13:00:00 24.3 13 Oeste 26 Oeste 0 -- -- 51
2019-05-21 12:00:00 22.8 10 Sudoeste 20 Oeste 0 -- -- 51
2019-05-21 11:00:00 20.5 7 Sudoeste 13 Oeste 0 -- -- 59
2019-05-21 10:00:00 18.4 2 Noroeste 9 Este 0 -- -- 71
2019-05-21 09:00:00 14.8 4 Este 6 Este 0 -- -- 86
2019-05-21 08:00:00 11 0 Calma 3 Oeste 0 -- -- 94
2019-05-21 07:00:00 10.1 0 Calma 5 Este 0 -- -- 94
2019-05-21 06:00:00 10.7 3 Noroeste 4 Noroeste 0 -- -- 91
2019-05-21 05:00:00 11.6 0 Calma 4 Noroeste 0 -- -- 92
2019-05-21 04:00:00 12 2 Oeste 4 Oeste 0 -- -- 91
2019-05-21 03:00:00 12.6 0 Calma 4 Norte 0 -- -- 89
2019-05-21 02:00:00 13.3 0 Calma 4 Noroeste 0 -- -- 85
2019-05-21 01:00:00 14 0 Calma 4 Noroeste 0 -- -- 83
2019-05-21 00:00:00 14.9 0 Calma 9 Oeste 0 -- -- 78